Time;durP1;ratioP1;P1;durP2;ratioP2;P2;SDS_P1;SDS_P2;PMS_P1;PMS_P2;Temp;Humidity;BMP_temperature;BMP_pressure;BME280_temperature;BME280_humidity;BME280_pressure;Samples;Min_cycle;Max_cycle;Signal;HPM_P1;HPM_P2
2023/10/30 00:01:18;;;;;;;9.40;5.40;;;;;;;13.05;100.00;99551.70;105486;1256;97316;-79
2023/10/30 00:04:05;;;;;;;8.10;5.00;;;;;;;13.05;100.00;99555.38;105447;1254;98459;-79
2023/10/30 00:06:51;;;;;;;11.80;5.10;;;;;;;13.03;100.00;99568.28;105258;1260;100149;-78
2023/10/30 00:09:38;;;;;;;12.00;5.50;;;;;;;13.04;100.00;99572.38;105404;1255;99251;-78
2023/10/30 00:12:24;;;;;;;12.30;5.40;;;;;;;13.04;100.00;99578.34;105403;1258;99066;-79
2023/10/30 00:15:09;;;;;;;10.00;5.40;;;;;;;13.04;100.00;99581.86;105339;1258;96628;-77
2023/10/30 00:17:55;;;;;;;11.70;5.10;;;;;;;13.03;100.00;99596.77;105377;1255;97158;-78
2023/10/30 00:20:40;;;;;;;12.10;5.50;;;;;;;13.02;100.00;99600.21;105429;1255;100810;-78
2023/10/30 00:23:27;;;;;;;10.80;5.50;;;;;;;13.00;100.00;99589.04;105602;1256;100688;-78
2023/10/30 00:26:12;;;;;;;14.20;5.40;;;;;;;12.98;100.00;99583.44;105547;1258;97804;-77
2023/10/30 00:29:02;;;;;;;13.00;6.50;;;;;;;12.96;100.00;99586.58;105594;1255;96710;-79
2023/10/30 00:31:47;;;;;;;9.90;5.30;;;;;;;12.95;100.00;99587.88;105485;1254;97247;-79
2023/10/30 00:34:32;;;;;;;10.10;5.40;;;;;;;12.94;100.00;99590.16;105567;1254;100070;-77
2023/10/30 00:37:18;;;;;;;12.80;6.00;;;;;;;12.91;100.00;99585.89;105330;1258;99883;-77
2023/10/30 00:40:05;;;;;;;10.00;5.20;;;;;;;12.89;100.00;99578.84;105326;1258;109114;-78
2023/10/30 00:42:50;;;;;;;13.00;5.60;;;;;;;12.88;100.00;99582.63;105650;1260;96736;-78
2023/10/30 00:45:36;;;;;;;11.10;6.00;;;;;;;12.87;100.00;99589.75;105437;1258;97152;-79
2023/10/30 00:48:25;;;;;;;9.00;5.10;;;;;;;12.85;100.00;99593.95;105625;1258;100891;-79
2023/10/30 00:51:10;;;;;;;11.90;5.20;;;;;;;12.84;100.00;99597.73;105506;1258;99766;-78
2023/10/30 00:53:56;;;;;;;9.60;5.50;;;;;;;12.83;100.00;99593.29;105467;1258;97890;-78
2023/10/30 00:56:41;;;;;;;13.80;5.70;;;;;;;12.80;100.00;99589.34;105428;1256;97119;-78
2023/10/30 00:59:27;;;;;;;13.20;6.00;;;;;;;12.79;100.00;99577.53;105480;1258;97057;-78
2023/10/30 01:02:13;;;;;;;11.80;5.30;;;;;;;12.77;100.00;99579.79;105358;1254;101018;-79
2023/10/30 01:04:58;;;;;;;13.10;5.80;;;;;;;12.75;100.00;99582.37;105255;1258;100107;-79
2023/10/30 01:07:44;;;;;;;12.30;5.60;;;;;;;12.74;100.00;99581.48;105241;1258;97710;-78
2023/10/30 01:10:31;;;;;;;12.90;5.60;;;;;;;12.72;100.00;99579.27;105491;1257;96757;-79
2023/10/30 01:13:17;;;;;;;7.80;5.40;;;;;;;12.70;100.00;99579.46;105361;1255;96817;-79
2023/10/30 01:16:05;;;;;;;11.30;5.80;;;;;;;12.67;100.00;99581.81;105374;1254;99994;-79
2023/10/30 01:18:50;;;;;;;18.60;6.60;;;;;;;12.65;100.00;99575.10;105497;1258;99137;-78
2023/10/30 01:21:37;;;;;;;11.40;5.70;;;;;;;12.62;100.00;99575.17;105414;1256;98384;-78
2023/10/30 01:24:22;;;;;;;10.80;6.00;;;;;;;12.60;100.00;99566.44;105688;1258;97113;-79
2023/10/30 01:27:08;;;;;;;13.80;6.90;;;;;;;12.57;100.00;99558.83;105471;1255;97194;-78
2023/10/30 01:29:53;;;;;;;16.60;6.40;;;;;;;12.53;100.00;99544.42;105506;1256;100021;-79
2023/10/30 01:32:39;;;;;;;10.20;6.10;;;;;;;12.49;100.00;99534.63;105476;1254;99078;-79
2023/10/30 01:35:25;;;;;;;13.60;6.30;;;;;;;12.43;100.00;99534.65;105246;1261;98390;-77
2023/10/30 01:38:10;;;;;;;11.90;5.80;;;;;;;12.40;100.00;99552.44;105413;1254;97862;-79
2023/10/30 01:40:56;;;;;;;9.90;5.70;;;;;;;12.37;100.00;99571.04;105460;1258;96605;-78
2023/10/30 01:43:42;;;;;;;10.60;6.10;;;;;;;12.34;100.00;99560.64;105377;1258;100049;-79
2023/10/30 01:46:28;;;;;;;11.00;5.80;;;;;;;12.32;100.00;99557.45;105494;1258;99749;-79
2023/10/30 01:49:14;;;;;;;12.10;7.00;;;;;;;12.30;100.00;99558.14;105534;1255;97777;-79
2023/10/30 01:52:00;;;;;;;16.50;8.30;;;;;;;12.29;100.00;99559.67;105551;1254;96655;-79
2023/10/30 01:54:47;;;;;;;14.40;6.90;;;;;;;12.27;100.00;99555.06;105656;1258;96490;-79
2023/10/30 01:57:33;;;;;;;14.10;6.30;;;;;;;12.25;100.00;99550.91;105692;1258;100025;-78
2023/10/30 02:00:19;;;;;;;12.80;6.10;;;;;;;12.23;100.00;99552.56;106036;1254;99093;-80
2023/10/30 02:03:04;;;;;;;12.50;6.50;;;;;;;12.21;100.00;99551.42;105944;1260;97857;-80
2023/10/30 02:05:54;;;;;;;11.70;6.30;;;;;;;12.17;100.00;99556.90;105988;1256;96620;-79
2023/10/30 02:08:40;;;;;;;12.40;5.80;;;;;;;12.14;100.00;99557.44;106055;1255;96854;-79
2023/10/30 02:11:26;;;;;;;10.70;5.90;;;;;;;12.10;100.00;99563.49;106012;1256;100519;-80
2023/10/30 02:14:12;;;;;;;11.20;6.10;;;;;;;12.08;100.00;99568.02;106003;1255;99049;-80
2023/10/30 02:16:57;;;;;;;11.10;5.90;;;;;;;12.05;100.00;99576.40;105544;1256;98611;-80
2023/10/30 02:19:43;;;;;;;14.30;7.00;;;;;;;12.03;100.00;99579.71;105574;1256;96544;-79
2023/10/30 02:22:28;;;;;;;14.30;5.90;;;;;;;12.01;100.00;99577.55;105664;1258;96989;-79
2023/10/30 02:25:18;;;;;;;14.10;7.00;;;;;;;11.99;100.00;99574.17;105533;1256;100076;-79
2023/10/30 02:28:03;;;;;;;12.90;6.70;;;;;;;11.97;100.00;99575.89;105515;1258;101061;-78
2023/10/30 02:30:48;;;;;;;11.20;6.10;;;;;;;11.96;100.00;99576.03;105528;1258;97780;-79
2023/10/30 02:33:34;;;;;;;8.90;5.80;;;;;;;11.95;100.00;99571.67;105453;1256;97855;-79
2023/10/30 02:36:19;;;;;;;10.70;6.00;;;;;;;11.94;100.00;99571.84;105569;1254;97124;-79
2023/10/30 02:39:05;;;;;;;14.40;7.00;;;;;;;11.93;100.00;99559.45;105658;1256;101397;-79
2023/10/30 02:41:50;;;;;;;12.50;7.10;;;;;;;11.91;100.00;99554.02;106016;1256;99092;-79
2023/10/30 02:44:37;;;;;;;12.50;6.10;;;;;;;11.89;100.00;99548.72;106093;1255;98991;-79
2023/10/30 02:47:24;;;;;;;9.90;6.10;;;;;;;11.89;100.00;99539.11;106264;1256;96649;-79
2023/10/30 02:50:10;;;;;;;18.20;6.90;;;;;;;11.87;100.00;99533.88;108480;1254;94600;-80
2023/10/30 02:52:56;;;;;;;13.10;6.60;;;;;;;11.85;100.00;99528.98;107025;1256;100024;-80
2023/10/30 02:55:43;;;;;;;11.60;6.90;;;;;;;11.83;100.00;99521.91;106494;1254;100345;-81
2023/10/30 02:58:28;;;;;;;11.00;6.30;;;;;;;11.81;100.00;99514.75;106438;1258;97746;-81
2023/10/30 03:01:14;;;;;;;11.50;6.70;;;;;;;11.78;100.00;99509.56;106528;1258;98005;-80
2023/10/30 03:04:01;;;;;;;11.40;6.40;;;;;;;11.76;100.00;99504.63;106493;1259;97060;-77
2023/10/30 03:06:46;;;;;;;11.40;6.90;;;;;;;11.74;100.00;99504.98;105575;1258;100124;-78
2023/10/30 03:09:34;;;;;;;11.00;6.30;;;;;;;11.73;100.00;99517.41;105626;1259;99078;-79
2023/10/30 03:12:19;;;;;;;13.10;6.70;;;;;;;11.74;100.00;99531.81;106587;1256;97724;-79
2023/10/30 03:15:05;;;;;;;13.40;6.80;;;;;;;11.74;100.00;99544.10;106015;1258;96540;-79
2023/10/30 03:17:51;;;;;;;11.80;7.10;;;;;;;11.75;100.00;99539.92;105941;1256;96528;-80
2023/10/30 03:20:36;;;;;;;13.80;6.30;;;;;;;11.74;100.00;99533.70;105956;1255;99980;-79
2023/10/30 03:23:22;;;;;;;11.40;7.60;;;;;;;11.73;100.00;99537.30;105528;1262;100337;-79
2023/10/30 03:26:08;;;;;;;14.70;7.70;;;;;;;11.72;100.00;99536.15;105456;1255;97733;-79
2023/10/30 03:28:54;;;;;;;13.50;7.20;;;;;;;11.71;100.00;99539.02;105516;1254;96597;-79
2023/10/30 03:31:40;;;;;;;14.20;7.40;;;;;;;11.68;100.00;99542.30;105544;1256;97135;-78
2023/10/30 03:34:25;;;;;;;13.80;6.70;;;;;;;11.65;100.00;99534.13;105416;1256;100035;-76
2023/10/30 03:37:11;;;;;;;15.10;6.20;;;;;;;11.62;100.00;99521.48;105475;1256;100777;-78
2023/10/30 03:39:58;;;;;;;12.70;6.50;;;;;;;11.61;100.00;99513.66;105586;1256;99071;-79
2023/10/30 03:42:44;;;;;;;13.40;6.40;;;;;;;11.59;100.00;99516.67;105296;1258;96699;-78
2023/10/30 03:45:30;;;;;;;10.30;5.70;;;;;;;11.58;100.00;99534.80;105407;1254;96598;-79
2023/10/30 03:48:15;;;;;;;9.50;6.30;;;;;;;11.54;100.00;99552.34;105366;1258;108753;-79
2023/10/30 03:51:02;;;;;;;11.20;6.30;;;;;;;11.52;100.00;99543.31;105424;1258;99145;-79
2023/10/30 03:53:49;;;;;;;13.00;5.80;;;;;;;11.51;100.00;99539.39;105422;1260;98539;-77
2023/10/30 03:56:35;;;;;;;12.60;6.20;;;;;;;11.49;100.00;99552.28;105430;1258;96603;-78
2023/10/30 03:59:21;;;;;;;10.30;6.20;;;;;;;11.49;100.00;99561.16;105659;1258;97749;-77
2023/10/30 04:02:06;;;;;;;15.80;6.50;;;;;;;11.48;100.00;99561.45;105873;1258;99989;-78
2023/10/30 04:04:52;;;;;;;11.20;6.10;;;;;;;11.47;100.00;99568.23;105629;1258;99900;-81
2023/10/30 04:07:37;;;;;;;12.60;6.30;;;;;;;11.46;100.00;99571.95;106043;1258;97791;-79
2023/10/30 04:10:23;;;;;;;16.60;7.20;;;;;;;11.45;100.00;99563.29;106067;1258;96522;-80
2023/10/30 04:13:08;;;;;;;15.70;6.10;;;;;;;11.44;100.00;99554.47;105697;1256;96580;-80
2023/10/30 04:15:54;;;;;;;14.90;6.90;;;;;;;11.43;100.00;99559.09;105676;1254;100036;-80
2023/10/30 04:18:39;;;;;;;9.00;6.20;;;;;;;11.42;100.00;99566.20;105800;1258;99293;-79
2023/10/30 04:21:25;;;;;;;9.60;5.70;;;;;;;11.41;100.00;99568.02;105946;1258;97772;-79
2023/10/30 04:24:10;;;;;;;9.90;5.90;;;;;;;11.38;100.00;99565.85;106044;1258;96789;-79
2023/10/30 04:26:56;;;;;;;11.10;6.40;;;;;;;11.37;100.00;99573.16;105915;1258;96489;-79
2023/10/30 04:29:41;;;;;;;12.80;6.70;;;;;;;11.36;100.00;99565.83;105879;1260;100027;-78
2023/10/30 04:32:27;;;;;;;9.50;5.90;;;;;;;11.35;100.00;99562.08;105958;1258;99281;-80
2023/10/30 04:35:13;;;;;;;12.00;6.40;;;;;;;11.34;100.00;99566.33;105817;1259;97911;-80
2023/10/30 04:37:58;;;;;;;17.20;6.20;;;;;;;11.32;100.00;99563.04;105842;1260;96677;-78
2023/10/30 04:40:44;;;;;;;11.60;6.60;;;;;;;11.30;100.00;99567.88;105902;1258;96524;-79
2023/10/30 04:43:33;;;;;;;9.90;5.90;;;;;;;11.29;100.00;99570.56;105575;1256;101347;-79
2023/10/30 04:46:19;;;;;;;13.10;6.40;;;;;;;11.27;100.00;99574.84;105640;1254;100068;-78
2023/10/30 04:49:04;;;;;;;12.20;6.70;;;;;;;11.26;100.00;99570.55;105547;1258;98461;-78
2023/10/30 04:51:50;;;;;;;12.50;5.60;;;;;;;11.25;100.00;99575.52;105443;1258;97324;-78
2023/10/30 04:54:36;;;;;;;10.10;6.20;;;;;;;11.25;100.00;99587.55;105673;1258;97056;-78
2023/10/30 04:57:21;;;;;;;10.10;6.30;;;;;;;11.25;100.00;99605.70;105434;1258;100019;-79
2023/10/30 05:00:08;;;;;;;11.50;6.50;;;;;;;11.26;100.00;99619.14;105491;1259;99721;-78
2023/10/30 05:02:53;;;;;;;13.90;6.40;;;;;;;11.26;100.00;99614.02;105524;1261;97867;-79
2023/10/30 05:05:39;;;;;;;13.60;6.40;;;;;;;11.28;100.00;99619.73;105540;1258;96580;-78
2023/10/30 05:08:25;;;;;;;11.10;6.30;;;;;;;11.27;100.00;99616.48;105582;1256;97269;-79
2023/10/30 05:11:11;;;;;;;16.10;6.70;;;;;;;11.26;100.00;99612.29;105509;1258;100053;-79
2023/10/30 05:13:57;;;;;;;10.50;5.80;;;;;;;11.26;100.00;99614.96;105435;1258;99202;-79
2023/10/30 05:16:42;;;;;;;10.10;6.30;;;;;;;11.27;100.00;99616.70;105447;1256;97779;-79
2023/10/30 05:19:29;;;;;;;15.20;6.80;;;;;;;11.28;100.00;99612.04;105521;1259;96794;-79
2023/10/30 05:22:14;;;;;;;14.80;6.40;;;;;;;11.29;100.00;99615.20;105411;1258;97268;-79
2023/10/30 05:25:03;;;;;;;8.80;6.40;;;;;;;11.31;100.00;99620.52;105537;1258;101264;-79
2023/10/30 05:27:49;;;;;;;12.50;6.10;;;;;;;11.31;100.00;99630.79;105450;1256;99092;-78
2023/10/30 05:30:35;;;;;;;13.00;7.00;;;;;;;11.31;100.00;99629.49;105432;1256;97813;-79
2023/10/30 05:33:21;;;;;;;10.00;6.70;;;;;;;11.31;100.00;99624.95;105620;1259;97010;-79
2023/10/30 05:36:06;;;;;;;11.60;6.00;;;;;;;11.31;100.00;99628.77;105569;1258;97290;-79
2023/10/30 05:38:52;;;;;;;12.10;6.90;;;;;;;11.29;100.00;99642.22;105516;1258;99975;-79
2023/10/30 05:41:38;;;;;;;16.60;7.20;;;;;;;11.29;100.00;99648.69;105557;1258;99159;-79
2023/10/30 05:44:23;;;;;;;9.30;6.60;;;;;;;11.30;100.00;99645.07;105480;1254;97806;-79
2023/10/30 05:47:09;;;;;;;12.70;7.70;;;;;;;11.30;100.00;99649.30;105363;1254;96624;-78
2023/10/30 05:49:55;;;;;;;13.80;7.30;;;;;;;11.29;100.00;99667.45;105511;1257;97132;-79
2023/10/30 05:52:41;;;;;;;12.00;7.50;;;;;;;11.27;100.00;99668.42;105924;1258;100054;-80
2023/10/30 05:55:26;;;;;;;12.50;7.90;;;;;;;11.26;100.00;99666.68;105907;1258;100555;-79
2023/10/30 05:58:12;;;;;;;12.50;7.90;;;;;;;11.24;100.00;99669.38;105911;1256;98787;-79
2023/10/30 06:00:58;;;;;;;20.00;11.30;;;;;;;11.22;100.00;99668.31;105643;1258;96646;-79
2023/10/30 06:03:44;;;;;;;19.50;11.70;;;;;;;11.20;100.00;99669.11;105526;1260;96522;-79
2023/10/30 06:06:30;;;;;;;18.20;11.50;;;;;;;11.19;100.00;99669.56;105471;1256;100039;-78
2023/10/30 06:09:15;;;;;;;25.40;15.50;;;;;;;11.19;100.00;99672.20;105426;1255;99131;-79
2023/10/30 06:12:01;;;;;;;23.20;13.30;;;;;;;11.19;100.00;99678.31;105396;1261;98003;-78
2023/10/30 06:14:46;;;;;;;21.80;12.30;;;;;;;11.18;100.00;99679.34;105455;1258;96615;-79
2023/10/30 06:17:32;;;;;;;12.80;8.40;;;;;;;11.18;100.00;99685.66;105879;1254;96536;-80
2023/10/30 06:20:17;;;;;;;13.20;7.40;;;;;;;11.17;100.00;99687.92;105842;1267;100843;-80
2023/10/30 06:23:03;;;;;;;11.60;6.80;;;;;;;11.17;100.00;99693.25;105702;1254;100353;-79
2023/10/30 06:25:48;;;;;;;8.70;5.90;;;;;;;11.17;100.00;99695.64;105866;1258;97799;-79
2023/10/30 06:28:34;;;;;;;14.80;7.10;;;;;;;11.17;100.00;99693.08;105799;1259;96700;-79
2023/10/30 06:31:20;;;;;;;13.90;6.80;;;;;;;11.19;100.00;99692.30;105562;1254;96523;-78
2023/10/30 06:34:05;;;;;;;11.30;6.70;;;;;;;11.19;100.00;99681.15;105867;1258;99994;-79
2023/10/30 06:36:51;;;;;;;11.20;6.90;;;;;;;11.20;100.00;99673.60;105769;1258;99101;-79
2023/10/30 06:39:37;;;;;;;12.40;7.10;;;;;;;11.19;100.00;99683.38;105729;1258;99084;-79
2023/10/30 06:42:22;;;;;;;12.00;7.10;;;;;;;11.19;100.00;99695.34;106048;1258;96524;-79
2023/10/30 06:45:08;;;;;;;12.40;7.20;;;;;;;11.20;100.00;99693.64;105741;1255;96819;-80
2023/10/30 06:47:53;;;;;;;11.30;6.60;;;;;;;11.20;100.00;99695.88;105653;1259;100130;-78
2023/10/30 06:50:39;;;;;;;11.40;6.80;;;;;;;11.22;100.00;99699.25;106293;1266;99075;-79
2023/10/30 06:53:25;;;;;;;12.30;6.70;;;;;;;11.25;100.00;99703.64;105925;1259;99047;-80
2023/10/30 06:56:11;;;;;;;8.90;6.20;;;;;;;11.28;100.00;99701.95;105460;1258;96579;-80
2023/10/30 06:58:56;;;;;;;13.10;5.90;;;;;;;11.32;100.00;99703.70;105815;1258;97162;-80
2023/10/30 07:01:44;;;;;;;11.00;6.50;;;;;;;11.36;100.00;99703.27;105938;1256;100763;-79
2023/10/30 07:04:30;;;;;;;10.00;6.10;;;;;;;11.41;100.00;99704.40;105852;1258;99085;-80
2023/10/30 07:07:15;;;;;;;11.40;6.30;;;;;;;11.45;100.00;99706.11;105884;1262;97736;-80
2023/10/30 07:10:01;;;;;;;12.40;6.60;;;;;;;11.50;100.00;99717.69;105857;1259;96651;-80
2023/10/30 07:12:46;;;;;;;9.60;6.10;;;;;;;11.56;100.00;99727.54;105855;1259;98370;-79
2023/10/30 07:15:32;;;;;;;13.40;6.20;;;;;;;11.63;100.00;99729.29;105782;1258;101183;-78
2023/10/30 07:18:18;;;;;;;12.80;5.60;;;;;;;11.70;100.00;99721.92;105329;1258;99076;-78
2023/10/30 07:21:04;;;;;;;9.90;5.40;;;;;;;11.77;100.00;99722.56;105790;1260;99511;-79
2023/10/30 07:23:49;;;;;;;9.70;5.60;;;;;;;11.84;100.00;99733.00;105905;1259;96632;-79
2023/10/30 07:26:35;;;;;;;8.20;4.90;;;;;;;11.92;100.00;99734.19;106017;1257;97053;-79
2023/10/30 07:29:20;;;;;;;8.20;5.10;;;;;;;12.00;100.00;99739.71;105992;1258;100576;-80
2023/10/30 07:32:06;;;;;;;9.70;4.80;;;;;;;12.07;100.00;99742.88;105684;1257;99149;-79
2023/10/30 07:34:51;;;;;;;8.60;5.10;;;;;;;12.15;100.00;99738.14;105439;1267;99004;-79
2023/10/30 07:37:37;;;;;;;10.00;4.80;;;;;;;12.22;100.00;99732.86;105523;1259;96541;-79
2023/10/30 07:40:25;;;;;;;7.00;5.10;;;;;;;12.29;100.00;99735.51;105283;1259;97131;-78
2023/10/30 07:43:11;;;;;;;10.10;5.40;;;;;;;12.35;100.00;99737.39;105491;1258;101688;-79
2023/10/30 07:45:57;;;;;;;12.90;5.30;;;;;;;12.43;100.00;99741.20;105446;1254;100440;-79
2023/10/30 07:48:43;;;;;;;8.10;4.40;;;;;;;12.49;100.00;99741.32;105667;1254;99435;-79
2023/10/30 07:51:28;;;;;;;6.60;4.00;;;;;;;12.57;100.00;99744.15;105303;1259;96688;-79
2023/10/30 07:54:14;;;;;;;10.10;4.70;;;;;;;12.65;100.00;99743.16;105364;1254;96621;-77
2023/10/30 07:56:59;;;;;;;8.60;4.90;;;;;;;12.72;100.00;99739.30;105796;1260;101032;-79
2023/10/30 07:59:45;;;;;;;6.90;4.70;;;;;;;12.79;100.00;99738.81;105214;1267;100083;-77
2023/10/30 08:02:30;;;;;;;7.40;4.00;;;;;;;12.87;100.00;99733.68;105268;1258;97793;-78
2023/10/30 08:05:17;;;;;;;7.00;4.40;;;;;;;12.94;100.00;99733.11;105309;1260;96701;-78
2023/10/30 08:08:02;;;;;;;10.20;4.70;;;;;;;12.99;100.00;99740.14;105452;1259;97218;-78
2023/10/30 08:10:48;;;;;;;9.20;4.10;;;;;;;13.02;100.00;99743.83;105340;1260;100711;-78
2023/10/30 08:13:34;;;;;;;7.90;4.40;;;;;;;13.05;100.00;99744.93;105399;1259;100025;-79
2023/10/30 08:16:20;;;;;;;5.80;4.20;;;;;;;13.11;100.00;99746.19;105406;1258;99077;-78
2023/10/30 08:19:05;;;;;;;9.90;4.00;;;;;;;13.20;100.00;99744.61;105743;1253;97535;-78
2023/10/30 08:21:51;;;;;;;5.20;3.70;;;;;;;13.28;100.00;99744.89;105611;1269;97237;-78
2023/10/30 08:24:37;;;;;;;6.60;3.80;;;;;;;13.36;100.00;99749.17;105473;1260;99990;-78
2023/10/30 08:27:22;;;;;;;6.90;3.80;;;;;;;13.45;100.00;99742.16;105871;1254;99119;-79
2023/10/30 08:30:08;;;;;;;9.10;4.30;;;;;;;13.51;100.00;99747.05;105428;1254;99470;-78
2023/10/30 08:32:53;;;;;;;8.10;4.40;;;;;;;13.58;100.00;99745.89;105953;1258;96588;-78
2023/10/30 08:35:39;;;;;;;8.10;3.80;;;;;;;13.63;100.00;99751.20;105990;1261;97144;-80
2023/10/30 08:38:25;;;;;;;5.50;3.30;;;;;;;13.69;100.00;99757.53;106079;1261;101261;-79
2023/10/30 08:41:17;;;;;;;6.70;3.90;;;;;;;13.73;100.00;99753.14;105953;1254;99091;-80
2023/10/30 08:44:04;;;;;;;8.40;3.20;;;;;;;13.76;100.00;99760.17;106076;1260;99565;-79
2023/10/30 08:46:51;;;;;;;9.20;4.00;;;;;;;13.81;100.00;99781.77;106095;1259;96530;-79
2023/10/30 08:49:36;;;;;;;6.30;3.20;;;;;;;13.85;100.00;99791.98;105580;1260;96922;-78
2023/10/30 08:52:22;;;;;;;6.40;3.30;;;;;;;13.90;100.00;99789.73;105594;1261;101809;-78
2023/10/30 08:55:08;;;;;;;7.40;3.90;;;;;;;13.94;100.00;99797.28;105533;1257;100520;-79
2023/10/30 08:57:53;;;;;;;7.10;3.30;;;;;;;13.99;100.00;99802.10;105421;1268;98931;-79
2023/10/30 09:00:38;;;;;;;6.40;3.20;;;;;;;14.04;100.00;99804.23;105494;1255;96618;-78
2023/10/30 09:03:24;;;;;;;5.40;3.20;;;;;;;14.10;100.00;99804.61;105420;1259;97090;-77
2023/10/30 09:06:09;;;;;;;5.50;3.10;;;;;;;14.16;100.00;99807.71;105459;1254;101359;-79
2023/10/30 09:08:55;;;;;;;6.50;2.70;;;;;;;14.21;100.00;99820.46;105512;1260;100103;-80
2023/10/30 09:11:40;;;;;;;7.60;2.90;;;;;;;14.25;100.00;99835.94;105429;1259;99076;-78
2023/10/30 09:14:26;;;;;;;4.20;2.30;;;;;;;14.31;100.00;99834.38;105444;1254;96508;-77
2023/10/30 09:17:12;;;;;;;5.20;2.70;;;;;;;14.36;100.00;99832.70;105612;1260;96593;-78
2023/10/30 09:19:57;;;;;;;9.20;3.00;;;;;;;14.42;100.00;99840.15;105547;1258;100093;-79
2023/10/30 09:22:43;;;;;;;5.30;3.20;;;;;;;14.49;100.00;99842.11;105666;1257;100089;-79
2023/10/30 09:25:28;;;;;;;5.60;2.50;;;;;;;14.56;100.00;99853.59;105622;1258;97747;-79
2023/10/30 09:28:14;;;;;;;5.50;3.00;;;;;;;14.63;100.00;99863.80;105493;1255;97068;-77
2023/10/30 09:30:59;;;;;;;9.40;3.00;;;;;;;14.68;100.00;99863.95;105604;1254;97905;-78
2023/10/30 09:33:45;;;;;;;4.80;3.10;;;;;;;14.73;100.00;99867.88;105499;1254;101272;-78
2023/10/30 09:36:31;;;;;;;4.90;2.60;;;;;;;14.76;100.00;99864.72;105532;1260;100861;-79
2023/10/30 09:39:16;;;;;;;6.70;3.20;;;;;;;14.77;100.00;99858.86;105503;1258;98528;-78
2023/10/30 09:42:06;;;;;;;4.80;3.00;;;;;;;14.78;100.00;99861.16;105492;1255;96571;-78
2023/10/30 09:44:52;;;;;;;8.40;2.70;;;;;;;14.79;100.00;99864.42;105545;1259;96580;-79
2023/10/30 09:47:38;;;;;;;4.90;2.60;;;;;;;14.81;100.00;99863.07;105470;1258;100673;-79
2023/10/30 09:50:25;;;;;;;5.80;2.30;;;;;;;14.84;100.00;99863.26;105509;1259;100352;-79
2023/10/30 09:53:11;;;;;;;6.00;2.90;;;;;;;14.87;100.00;99859.90;105533;1259;98753;-79
2023/10/30 09:55:59;;;;;;;6.20;2.70;;;;;;;14.90;100.00;99855.86;105666;1260;97299;-79
2023/10/30 09:58:48;;;;;;;4.10;2.20;;;;;;;14.92;100.00;99867.72;105623;1254;96569;-80
2023/10/30 10:01:34;;;;;;;6.40;2.50;;;;;;;14.95;100.00;99867.96;105761;1259;101530;-78
2023/10/30 10:04:19;;;;;;;5.90;2.80;;;;;;;14.98;100.00;99875.80;105498;1254;99866;-78
2023/10/30 10:07:05;;;;;;;7.90;2.90;;;;;;;15.00;100.00;99880.55;105414;1254;97734;-79
2023/10/30 10:10:01;;;;;;;7.40;2.90;;;;;;;15.03;100.00;99889.23;105502;1260;96656;-78
2023/10/30 10:12:53;;;;;;;3.90;2.30;;;;;;;15.06;100.00;99891.56;105552;1254;96606;-78
2023/10/30 10:15:39;;;;;;;6.40;2.90;;;;;;;15.08;100.00;99888.33;105578;1254;101087;-78
2023/10/30 10:18:32;;;;;;;7.40;2.80;;;;;;;15.09;99.87;99886.91;105567;1263;100293;-78
2023/10/30 13:31:58;;;;;;;6.00;2.40;;;;;;;16.27;88.31;99797.98;105487;1257;102598;-78
2023/10/30 13:34:44;;;;;;;3.60;1.80;;;;;;;16.27;88.92;99786.45;105364;1253;99158;-79
2023/10/30 13:37:30;;;;;;;3.90;2.00;;;;;;;16.28;89.18;99776.33;105545;1257;97733;-79
2023/10/30 13:40:15;;;;;;;5.80;1.50;;;;;;;16.29;89.20;99770.70;105564;1254;96600;-78
2023/10/30 13:43:02;;;;;;;3.40;1.60;;;;;;;16.28;89.00;99773.89;105497;1254;97769;-79
2023/10/30 13:45:48;;;;;;;7.10;1.80;;;;;;;16.28;89.22;99784.75;105626;1260;101304;-78
2023/10/30 13:48:34;;;;;;;5.70;1.70;;;;;;;16.27;89.17;99799.64;105652;1254;100365;-77
2023/10/30 13:51:20;;;;;;;4.10;1.90;;;;;;;16.24;89.16;99803.98;105472;1258;97790;-77
2023/10/30 13:54:06;;;;;;;3.80;2.10;;;;;;;16.22;89.21;99804.36;105610;1266;96679;-80
2023/10/30 13:56:51;;;;;;;3.20;1.60;;;;;;;16.20;89.52;99801.95;105647;1257;97198;-78
2023/10/30 13:59:37;;;;;;;6.00;3.20;;;;;;;16.18;89.66;99791.60;105631;1254;100041;-77
2023/10/30 14:02:22;;;;;;;5.00;3.30;;;;;;;16.16;89.55;99792.60;105508;1254;99073;-78
2023/10/30 14:05:08;;;;;;;8.20;2.50;;;;;;;16.14;89.54;99798.59;105644;1254;97914;-78
2023/10/30 14:07:54;;;;;;;4.80;2.40;;;;;;;16.13;89.91;99804.58;105496;1260;96539;-79
2023/10/30 14:10:40;;;;;;;5.40;2.00;;;;;;;16.12;90.04;99806.39;105573;1254;97042;-79
2023/10/30 14:13:25;;;;;;;2.90;1.80;;;;;;;16.11;90.54;99808.33;105617;1253;100936;-78
2023/10/30 14:16:11;;;;;;;4.00;2.10;;;;;;;16.09;91.32;99811.21;105689;1257;100454;-78
2023/10/30 14:18:56;;;;;;;7.40;2.30;;;;;;;16.07;91.28;99813.34;105925;1253;99453;-79
2023/10/30 14:21:44;;;;;;;5.30;2.30;;;;;;;16.06;91.65;99805.56;105704;1260;97378;-80
2023/10/30 14:24:29;;;;;;;7.90;5.90;;;;;;;16.02;91.97;99800.27;105646;1256;97944;-79
2023/10/30 14:27:14;;;;;;;5.60;4.20;;;;;;;15.99;91.72;99799.35;105767;1253;99992;-78
2023/10/30 14:30:00;;;;;;;7.10;3.80;;;;;;;15.96;92.22;99799.16;105777;1256;100406;-79
2023/10/30 14:32:46;;;;;;;9.40;3.30;;;;;;;15.92;92.23;99809.48;105670;1259;99192;-79
2023/10/30 14:35:31;;;;;;;7.50;3.10;;;;;;;15.88;92.42;99816.25;105996;1253;96625;-79
2023/10/30 14:38:16;;;;;;;3.50;2.30;;;;;;;15.84;92.32;99815.63;106053;1257;97117;-79
2023/10/30 14:41:01;;;;;;;7.00;3.20;;;;;;;15.79;92.54;99807.10;105814;1258;101308;-79
2023/10/30 14:43:48;;;;;;;5.50;2.60;;;;;;;15.73;92.94;99800.02;105634;1257;100315;-79
2023/10/30 14:46:34;;;;;;;4.70;2.50;;;;;;;15.68;93.31;99796.34;105585;1257;99068;-79
2023/10/30 14:49:20;;;;;;;3.10;2.50;;;;;;;15.61;93.28;99784.05;105507;1260;96606;-79
2023/10/30 14:52:06;;;;;;;8.20;3.60;;;;;;;15.54;93.57;99783.03;105604;1253;97918;-79
2023/10/30 14:54:52;;;;;;;10.30;5.30;;;;;;;15.47;93.50;99789.42;105576;1258;100006;-79
2023/10/30 14:57:38;;;;;;;15.30;6.30;;;;;;;15.40;93.78;99794.77;105600;1253;99107;-79
2023/10/30 15:00:24;;;;;;;16.60;6.40;;;;;;;15.34;94.02;99794.46;105463;1257;99081;-79
2023/10/30 15:03:09;;;;;;;12.20;6.00;;;;;;;15.29;94.10;99797.55;105539;1253;96649;-77
2023/10/30 15:05:55;;;;;;;11.30;5.50;;;;;;;15.25;94.12;99798.30;105502;1253;97076;-79
2023/10/30 15:08:41;;;;;;;24.30;12.70;;;;;;;15.19;94.31;99797.04;105587;1258;100046;-79
2023/10/30 15:11:26;;;;;;;29.70;14.50;;;;;;;15.12;94.16;99796.13;105875;1258;99117;-80
2023/10/30 15:14:11;;;;;;;24.70;14.60;;;;;;;15.05;94.57;99798.05;105663;1258;97797;-80
2023/10/30 15:16:57;;;;;;;32.30;19.10;;;;;;;14.97;94.65;99804.09;105592;1253;96540;-77
2023/10/30 15:19:42;;;;;;;26.00;15.60;;;;;;;14.90;95.10;99809.14;105568;1253;97288;-78
2023/10/30 15:22:28;;;;;;;27.50;15.20;;;;;;;14.85;95.70;99809.98;105579;1256;101599;-78
2023/10/30 15:25:14;;;;;;;33.10;18.90;;;;;;;14.82;95.98;99809.92;105524;1257;100376;-79
2023/10/30 15:28:00;;;;;;;39.30;21.60;;;;;;;14.78;95.98;99811.71;105612;1257;99055;-79
2023/10/30 15:30:53;;;;;;;42.40;25.80;;;;;;;14.72;95.93;99808.29;105616;1257;96707;-79
2023/10/30 15:33:39;;;;;;;46.80;28.40;;;;;;;14.66;95.91;99810.20;105600;1257;96848;-79
2023/10/30 15:36:24;;;;;;;48.60;27.20;;;;;;;14.61;96.12;99803.83;105656;1255;100620;-79
2023/10/30 15:39:10;;;;;;;51.60;29.20;;;;;;;14.56;96.04;99802.28;105601;1257;100391;-78
2023/10/30 15:41:55;;;;;;;50.10;27.40;;;;;;;14.50;96.26;99808.44;105639;1253;98836;-79
2023/10/30 15:44:41;;;;;;;44.50;27.50;;;;;;;14.40;96.31;99811.74;105536;1253;96620;-78
2023/10/30 15:47:26;;;;;;;42.00;22.70;;;;;;;14.29;96.53;99805.77;105651;1253;97501;-79